sensor_id;sensor_type;location;lat;lon;timestamp;P1;durP1;ratioP1;P2;durP2;ratioP2
47009;SDS011;59230;54.164;-3.124;2022-11-20T00:01:38;39.08;;;9.77;;
47009;SDS011;59230;54.164;-3.124;2022-11-20T00:03:48;38.78;;;9.50;;
47009;SDS011;59230;54.164;-3.124;2022-11-20T00:06:17;40.50;;;11.63;;
47009;SDS011;59230;54.164;-3.124;2022-11-20T00:08:45;44.17;;;10.68;;
47009;SDS011;59230;54.164;-3.124;2022-11-20T00:13:51;48.40;;;11.13;;
47009;SDS011;59230;54.164;-3.124;2022-11-20T00:16:21;45.15;;;12.25;;
47009;SDS011;59230;54.164;-3.124;2022-11-20T00:18:49;35.10;;;12.88;;
47009;SDS011;59230;54.164;-3.124;2022-11-20T00:21:16;44.17;;;12.25;;
47009;SDS011;59230;54.164;-3.124;2022-11-20T00:23:51;41.38;;;13.35;;
47009;SDS011;59230;54.164;-3.124;2022-11-20T00:26:22;48.53;;;12.82;;
47009;SDS011;59230;54.164;-3.124;2022-11-20T00:28:52;37.20;;;12.55;;
47009;SDS011;59230;54.164;-3.124;2022-11-20T00:31:20;44.65;;;11.45;;
47009;SDS011;59230;54.164;-3.124;2022-11-20T00:33:47;51.58;;;11.60;;
47009;SDS011;59230;54.164;-3.124;2022-11-20T00:36:16;41.15;;;12.00;;
47009;SDS011;59230;54.164;-3.124;2022-11-20T00:38:43;34.92;;;12.05;;
47009;SDS011;59230;54.164;-3.124;2022-11-20T00:41:10;35.28;;;10.80;;
47009;SDS011;59230;54.164;-3.124;2022-11-20T00:43:36;47.47;;;11.35;;
47009;SDS011;59230;54.164;-3.124;2022-11-20T00:46:05;44.53;;;11.60;;
47009;SDS011;59230;54.164;-3.124;2022-11-20T00:48:36;45.67;;;12.35;;
47009;SDS011;59230;54.164;-3.124;2022-11-20T00:51:02;38.45;;;11.55;;
47009;SDS011;59230;54.164;-3.124;2022-11-20T00:53:30;38.90;;;10.55;;
47009;SDS011;59230;54.164;-3.124;2022-11-20T00:58:28;33.20;;;10.30;;
47009;SDS011;59230;54.164;-3.124;2022-11-20T01:00:59;33.15;;;11.65;;
47009;SDS011;59230;54.164;-3.124;2022-11-20T01:03:30;44.97;;;11.27;;
47009;SDS011;59230;54.164;-3.124;2022-11-20T01:06:07;57.72;;;11.23;;
47009;SDS011;59230;54.164;-3.124;2022-11-20T01:08:36;49.28;;;11.27;;
47009;SDS011;59230;54.164;-3.124;2022-11-20T01:11:13;43.80;;;10.77;;
47009;SDS011;59230;54.164;-3.124;2022-11-20T01:13:41;39.55;;;10.23;;
47009;SDS011;59230;54.164;-3.124;2022-11-20T01:18:36;39.13;;;10.88;;
47009;SDS011;59230;54.164;-3.124;2022-11-20T01:21:09;31.85;;;9.50;;
47009;SDS011;59230;54.164;-3.124;2022-11-20T01:23:41;34.50;;;9.38;;
47009;SDS011;59230;54.164;-3.124;2022-11-20T01:26:12;36.25;;;9.75;;
47009;SDS011;59230;54.164;-3.124;2022-11-20T01:28:40;35.85;;;9.25;;
47009;SDS011;59230;54.164;-3.124;2022-11-20T01:31:12;37.50;;;8.60;;
47009;SDS011;59230;54.164;-3.124;2022-11-20T01:33:47;45.47;;;8.95;;
47009;SDS011;59230;54.164;-3.124;2022-11-20T01:36:15;31.85;;;7.25;;
47009;SDS011;59230;54.164;-3.124;2022-11-20T01:38:41;35.50;;;8.35;;
47009;SDS011;59230;54.164;-3.124;2022-11-20T01:41:07;27.95;;;7.50;;
47009;SDS011;59230;54.164;-3.124;2022-11-20T01:43:35;37.83;;;8.30;;
47009;SDS011;59230;54.164;-3.124;2022-11-20T01:48:33;30.77;;;8.57;;
47009;SDS011;59230;54.164;-3.124;2022-11-20T01:51:07;29.13;;;8.35;;
47009;SDS011;59230;54.164;-3.124;2022-11-20T01:53:51;31.15;;;8.13;;
47009;SDS011;59230;54.164;-3.124;2022-11-20T01:56:19;28.50;;;7.60;;
47009;SDS011;59230;54.164;-3.124;2022-11-20T01:58:50;18.27;;;5.95;;
47009;SDS011;59230;54.164;-3.124;2022-11-20T02:01:22;19.30;;;6.55;;
47009;SDS011;59230;54.164;-3.124;2022-11-20T02:03:47;23.92;;;6.43;;
47009;SDS011;59230;54.164;-3.124;2022-11-20T02:06:18;19.63;;;6.63;;
47009;SDS011;59230;54.164;-3.124;2022-11-20T02:08:50;20.67;;;7.18;;
47009;SDS011;59230;54.164;-3.124;2022-11-20T02:11:18;22.38;;;6.50;;
47009;SDS011;59230;54.164;-3.124;2022-11-20T02:13:47;23.75;;;6.15;;
47009;SDS011;59230;54.164;-3.124;2022-11-20T02:16:25;25.75;;;6.20;;
47009;SDS011;59230;54.164;-3.124;2022-11-20T02:18:54;24.48;;;5.90;;
47009;SDS011;59230;54.164;-3.124;2022-11-20T02:24:30;31.48;;;6.15;;
47009;SDS011;59230;54.164;-3.124;2022-11-20T02:27:09;24.00;;;6.18;;
47009;SDS011;59230;54.164;-3.124;2022-11-20T02:29:40;18.33;;;5.32;;
47009;SDS011;59230;54.164;-3.124;2022-11-20T02:32:17;26.67;;;6.32;;
47009;SDS011;59230;54.164;-3.124;2022-11-20T02:34:56;21.50;;;5.85;;
47009;SDS011;59230;54.164;-3.124;2022-11-20T02:37:23;23.00;;;6.28;;
47009;SDS011;59230;54.164;-3.124;2022-11-20T02:40:08;24.30;;;7.18;;
47009;SDS011;59230;54.164;-3.124;2022-11-20T02:42:35;29.77;;;6.97;;
47009;SDS011;59230;54.164;-3.124;2022-11-20T02:45:03;37.78;;;7.78;;
47009;SDS011;59230;54.164;-3.124;2022-11-20T02:47:30;34.25;;;6.78;;
47009;SDS011;59230;54.164;-3.124;2022-11-20T02:49:58;35.45;;;6.97;;
47009;SDS011;59230;54.164;-3.124;2022-11-20T02:52:25;23.80;;;4.93;;
47009;SDS011;59230;54.164;-3.124;2022-11-20T02:54:54;27.48;;;6.00;;
47009;SDS011;59230;54.164;-3.124;2022-11-20T02:57:21;30.73;;;5.50;;
47009;SDS011;59230;54.164;-3.124;2022-11-20T02:59:49;33.58;;;6.97;;
47009;SDS011;59230;54.164;-3.124;2022-11-20T03:02:15;41.03;;;7.65;;
47009;SDS011;59230;54.164;-3.124;2022-11-20T03:04:41;38.38;;;7.28;;
47009;SDS011;59230;54.164;-3.124;2022-11-20T03:07:07;27.75;;;6.38;;
47009;SDS011;59230;54.164;-3.124;2022-11-20T03:09:33;33.92;;;7.00;;
47009;SDS011;59230;54.164;-3.124;2022-11-20T03:11:58;43.42;;;6.90;;
47009;SDS011;59230;54.164;-3.124;2022-11-20T03:14:25;33.70;;;7.40;;
47009;SDS011;59230;54.164;-3.124;2022-11-20T03:16:51;32.45;;;6.38;;
47009;SDS011;59230;54.164;-3.124;2022-11-20T03:19:18;21.48;;;6.53;;
47009;SDS011;59230;54.164;-3.124;2022-11-20T03:21:44;39.25;;;7.03;;
47009;SDS011;59230;54.164;-3.124;2022-11-20T03:24:11;37.10;;;7.35;;
47009;SDS011;59230;54.164;-3.124;2022-11-20T03:26:41;27.52;;;7.38;;
47009;SDS011;59230;54.164;-3.124;2022-11-20T03:29:07;39.95;;;8.73;;
47009;SDS011;59230;54.164;-3.124;2022-11-20T03:31:35;29.45;;;7.93;;
47009;SDS011;59230;54.164;-3.124;2022-11-20T03:34:06;27.83;;;8.85;;
47009;SDS011;59230;54.164;-3.124;2022-11-20T03:36:32;33.20;;;8.95;;
47009;SDS011;59230;54.164;-3.124;2022-11-20T03:38:59;29.35;;;8.43;;
47009;SDS011;59230;54.164;-3.124;2022-11-20T03:41:27;41.42;;;9.52;;
47009;SDS011;59230;54.164;-3.124;2022-11-20T03:44:01;26.65;;;9.82;;
47009;SDS011;59230;54.164;-3.124;2022-11-20T03:46:30;38.72;;;10.43;;
47009;SDS011;59230;54.164;-3.124;2022-11-20T03:49:00;26.52;;;10.05;;
47009;SDS011;59230;54.164;-3.124;2022-11-20T03:51:30;26.52;;;9.27;;
47009;SDS011;59230;54.164;-3.124;2022-11-20T03:53:59;36.05;;;10.23;;
47009;SDS011;59230;54.164;-3.124;2022-11-20T03:56:30;27.27;;;8.98;;
47009;SDS011;59230;54.164;-3.124;2022-11-20T03:59:02;32.15;;;10.88;;
47009;SDS011;59230;54.164;-3.124;2022-11-20T04:01:34;27.08;;;9.70;;
47009;SDS011;59230;54.164;-3.124;2022-11-20T04:04:03;31.42;;;12.05;;
47009;SDS011;59230;54.164;-3.124;2022-11-20T04:06:33;32.20;;;11.88;;
47009;SDS011;59230;54.164;-3.124;2022-11-20T04:09:02;37.63;;;12.45;;
47009;SDS011;59230;54.164;-3.124;2022-11-20T04:11:31;32.38;;;11.27;;
47009;SDS011;59230;54.164;-3.124;2022-11-20T04:13:59;30.17;;;10.82;;
47009;SDS011;59230;54.164;-3.124;2022-11-20T04:16:29;31.35;;;10.63;;
47009;SDS011;59230;54.164;-3.124;2022-11-20T04:18:57;30.85;;;11.50;;
47009;SDS011;59230;54.164;-3.124;2022-11-20T04:21:25;50.67;;;12.82;;
47009;SDS011;59230;54.164;-3.124;2022-11-20T04:23:53;36.10;;;10.77;;
47009;SDS011;59230;54.164;-3.124;2022-11-20T04:26:22;30.17;;;10.77;;
47009;SDS011;59230;54.164;-3.124;2022-11-20T04:28:50;42.20;;;11.60;;
47009;SDS011;59230;54.164;-3.124;2022-11-20T04:31:23;32.72;;;13.10;;
47009;SDS011;59230;54.164;-3.124;2022-11-20T04:33:55;26.42;;;11.35;;
47009;SDS011;59230;54.164;-3.124;2022-11-20T04:36:24;35.17;;;12.13;;
47009;SDS011;59230;54.164;-3.124;2022-11-20T04:38:52;37.90;;;13.05;;
47009;SDS011;59230;54.164;-3.124;2022-11-20T04:41:24;32.53;;;12.32;;
47009;SDS011;59230;54.164;-3.124;2022-11-20T04:43:57;35.25;;;13.02;;
47009;SDS011;59230;54.164;-3.124;2022-11-20T04:46:30;43.72;;;15.32;;
47009;SDS011;59230;54.164;-3.124;2022-11-20T04:48:56;46.17;;;14.65;;
47009;SDS011;59230;54.164;-3.124;2022-11-20T04:51:23;42.10;;;14.50;;
47009;SDS011;59230;54.164;-3.124;2022-11-20T04:53:50;44.75;;;15.60;;
47009;SDS011;59230;54.164;-3.124;2022-11-20T04:56:18;51.95;;;16.05;;
47009;SDS011;59230;54.164;-3.124;2022-11-20T04:58:46;45.25;;;15.68;;
47009;SDS011;59230;54.164;-3.124;2022-11-20T05:01:17;47.97;;;16.02;;
47009;SDS011;59230;54.164;-3.124;2022-11-20T05:03:50;51.38;;;15.50;;
47009;SDS011;59230;54.164;-3.124;2022-11-20T05:06:18;61.50;;;17.00;;
47009;SDS011;59230;54.164;-3.124;2022-11-20T05:08:47;59.53;;;15.85;;
47009;SDS011;59230;54.164;-3.124;2022-11-20T05:11:17;48.67;;;15.07;;
47009;SDS011;59230;54.164;-3.124;2022-11-20T05:13:44;60.17;;;16.25;;
47009;SDS011;59230;54.164;-3.124;2022-11-20T05:16:18;42.75;;;15.45;;
47009;SDS011;59230;54.164;-3.124;2022-11-20T05:18:46;43.97;;;16.33;;
47009;SDS011;59230;54.164;-3.124;2022-11-20T05:21:16;62.80;;;17.88;;
47009;SDS011;59230;54.164;-3.124;2022-11-20T05:23:43;46.40;;;16.35;;
47009;SDS011;59230;54.164;-3.124;2022-11-20T05:26:14;69.40;;;19.40;;
47009;SDS011;59230;54.164;-3.124;2022-11-20T05:28:43;46.92;;;16.10;;
47009;SDS011;59230;54.164;-3.124;2022-11-20T05:31:13;47.92;;;17.40;;
47009;SDS011;59230;54.164;-3.124;2022-11-20T05:33:42;39.97;;;15.95;;
47009;SDS011;59230;54.164;-3.124;2022-11-20T05:36:13;28.33;;;13.52;;
47009;SDS011;59230;54.164;-3.124;2022-11-20T05:38:41;29.67;;;14.50;;
47009;SDS011;59230;54.164;-3.124;2022-11-20T05:41:11;32.05;;;13.38;;
47009;SDS011;59230;54.164;-3.124;2022-11-20T05:43:39;39.90;;;15.05;;
47009;SDS011;59230;54.164;-3.124;2022-11-20T05:46:08;37.45;;;14.73;;
47009;SDS011;59230;54.164;-3.124;2022-11-20T05:48:35;33.88;;;14.10;;
47009;SDS011;59230;54.164;-3.124;2022-11-20T05:51:06;38.97;;;17.30;;
47009;SDS011;59230;54.164;-3.124;2022-11-20T05:53:33;47.83;;;18.08;;
47009;SDS011;59230;54.164;-3.124;2022-11-20T05:56:05;63.70;;;22.48;;
47009;SDS011;59230;54.164;-3.124;2022-11-20T05:58:32;57.53;;;20.42;;
47009;SDS011;59230;54.164;-3.124;2022-11-20T06:01:10;65.50;;;18.13;;
47009;SDS011;59230;54.164;-3.124;2022-11-20T06:03:41;37.97;;;15.38;;
47009;SDS011;59230;54.164;-3.124;2022-11-20T06:06:12;55.05;;;18.48;;
47009;SDS011;59230;54.164;-3.124;2022-11-20T06:08:39;42.40;;;16.00;;
47009;SDS011;59230;54.164;-3.124;2022-11-20T06:11:08;51.90;;;20.88;;
47009;SDS011;59230;54.164;-3.124;2022-11-20T06:13:35;43.63;;;19.23;;
47009;SDS011;59230;54.164;-3.124;2022-11-20T06:16:01;55.08;;;19.67;;
47009;SDS011;59230;54.164;-3.124;2022-11-20T06:18:27;59.33;;;19.33;;
47009;SDS011;59230;54.164;-3.124;2022-11-20T06:23:44;39.92;;;15.95;;
47009;SDS011;59230;54.164;-3.124;2022-11-20T06:26:14;50.08;;;15.38;;
47009;SDS011;59230;54.164;-3.124;2022-11-20T06:28:45;42.92;;;14.55;;
47009;SDS011;59230;54.164;-3.124;2022-11-20T06:31:17;31.45;;;14.18;;
47009;SDS011;59230;54.164;-3.124;2022-11-20T06:33:45;47.20;;;15.15;;
47009;SDS011;59230;54.164;-3.124;2022-11-20T06:36:12;61.65;;;16.65;;
47009;SDS011;59230;54.164;-3.124;2022-11-20T06:38:40;41.00;;;13.50;;
47009;SDS011;59230;54.164;-3.124;2022-11-20T06:41:13;42.63;;;13.63;;
47009;SDS011;59230;54.164;-3.124;2022-11-20T06:43:42;66.20;;;15.20;;
47009;SDS011;59230;54.164;-3.124;2022-11-20T06:46:10;48.83;;;12.25;;
47009;SDS011;59230;54.164;-3.124;2022-11-20T06:48:37;55.88;;;12.95;;
47009;SDS011;59230;54.164;-3.124;2022-11-20T06:51:07;66.88;;;12.75;;
47009;SDS011;59230;54.164;-3.124;2022-11-20T06:53:35;64.25;;;13.73;;
47009;SDS011;59230;54.164;-3.124;2022-11-20T06:56:01;74.78;;;16.67;;
47009;SDS011;59230;54.164;-3.124;2022-11-20T06:58:27;37.50;;;12.45;;
47009;SDS011;59230;54.164;-3.124;2022-11-20T07:00:57;48.58;;;14.18;;
47009;SDS011;59230;54.164;-3.124;2022-11-20T07:03:25;47.97;;;17.50;;
47009;SDS011;59230;54.164;-3.124;2022-11-20T07:05:54;49.53;;;19.38;;
47009;SDS011;59230;54.164;-3.124;2022-11-20T07:08:21;51.28;;;19.55;;
47009;SDS011;59230;54.164;-3.124;2022-11-20T07:10:47;45.72;;;18.70;;
47009;SDS011;59230;54.164;-3.124;2022-11-20T07:13:13;43.95;;;13.35;;
47009;SDS011;59230;54.164;-3.124;2022-11-20T07:15:40;41.42;;;6.95;;
47009;SDS011;59230;54.164;-3.124;2022-11-20T07:18:07;43.03;;;5.78;;
47009;SDS011;59230;54.164;-3.124;2022-11-20T07:20:32;45.38;;;5.53;;
47009;SDS011;59230;54.164;-3.124;2022-11-20T07:22:59;55.65;;;5.63;;
47009;SDS011;59230;54.164;-3.124;2022-11-20T07:25:27;49.72;;;5.95;;
47009;SDS011;59230;54.164;-3.124;2022-11-20T07:27:57;32.63;;;4.97;;
47009;SDS011;59230;54.164;-3.124;2022-11-20T07:30:23;46.65;;;5.53;;
47009;SDS011;59230;54.164;-3.124;2022-11-20T07:32:52;44.85;;;5.30;;
47009;SDS011;59230;54.164;-3.124;2022-11-20T07:35:20;54.17;;;6.03;;
47009;SDS011;59230;54.164;-3.124;2022-11-20T07:37:46;37.10;;;5.45;;
47009;SDS011;59230;54.164;-3.124;2022-11-20T07:40:13;38.00;;;4.75;;
47009;SDS011;59230;54.164;-3.124;2022-11-20T07:42:50;47.55;;;4.05;;
47009;SDS011;59230;54.164;-3.124;2022-11-20T07:45:19;32.92;;;3.88;;
47009;SDS011;59230;54.164;-3.124;2022-11-20T07:47:45;29.95;;;3.75;;
47009;SDS011;59230;54.164;-3.124;2022-11-20T07:50:14;34.83;;;4.78;;
47009;SDS011;59230;54.164;-3.124;2022-11-20T07:52:42;31.63;;;4.03;;
47009;SDS011;59230;54.164;-3.124;2022-11-20T07:55:10;23.90;;;3.60;;
47009;SDS011;59230;54.164;-3.124;2022-11-20T07:57:35;19.30;;;3.40;;
47009;SDS011;59230;54.164;-3.124;2022-11-20T08:00:05;21.67;;;3.65;;
47009;SDS011;59230;54.164;-3.124;2022-11-20T08:02:38;28.73;;;3.40;;
47009;SDS011;59230;54.164;-3.124;2022-11-20T08:05:07;25.67;;;3.00;;
47009;SDS011;59230;54.164;-3.124;2022-11-20T08:07:37;33.38;;;4.07;;
47009;SDS011;59230;54.164;-3.124;2022-11-20T08:10:08;28.60;;;3.25;;
47009;SDS011;59230;54.164;-3.124;2022-11-20T08:12:50;23.63;;;3.38;;
47009;SDS011;59230;54.164;-3.124;2022-11-20T08:15:41;28.48;;;3.70;;
47009;SDS011;59230;54.164;-3.124;2022-11-20T08:18:18;35.20;;;3.78;;
47009;SDS011;59230;54.164;-3.124;2022-11-20T08:20:48;25.38;;;3.40;;
47009;SDS011;59230;54.164;-3.124;2022-11-20T08:23:18;33.05;;;3.55;;
47009;SDS011;59230;54.164;-3.124;2022-11-20T08:25:43;29.00;;;3.33;;
47009;SDS011;59230;54.164;-3.124;2022-11-20T08:28:09;24.05;;;3.33;;
47009;SDS011;59230;54.164;-3.124;2022-11-20T08:30:36;23.67;;;3.45;;
47009;SDS011;59230;54.164;-3.124;2022-11-20T08:33:07;24.60;;;3.45;;
47009;SDS011;59230;54.164;-3.124;2022-11-20T08:35:38;27.13;;;3.20;;
47009;SDS011;59230;54.164;-3.124;2022-11-20T08:38:04;26.95;;;3.28;;
47009;SDS011;59230;54.164;-3.124;2022-11-20T08:40:31;29.35;;;3.55;;
47009;SDS011;59230;54.164;-3.124;2022-11-20T08:42:57;26.58;;;3.70;;
47009;SDS011;59230;54.164;-3.124;2022-11-20T08:45:24;30.65;;;3.50;;
47009;SDS011;59230;54.164;-3.124;2022-11-20T08:47:53;30.63;;;3.17;;
47009;SDS011;59230;54.164;-3.124;2022-11-20T08:50:18;21.38;;;2.85;;
47009;SDS011;59230;54.164;-3.124;2022-11-20T08:52:46;19.80;;;2.90;;
47009;SDS011;59230;54.164;-3.124;2022-11-20T08:55:11;23.70;;;3.53;;
47009;SDS011;59230;54.164;-3.124;2022-11-20T08:57:38;18.15;;;2.28;;
47009;SDS011;59230;54.164;-3.124;2022-11-20T09:00:04;17.70;;;2.63;;
47009;SDS011;59230;54.164;-3.124;2022-11-20T09:02:32;21.13;;;2.70;;
47009;SDS011;59230;54.164;-3.124;2022-11-20T09:04:57;15.55;;;2.50;;
47009;SDS011;59230;54.164;-3.124;2022-11-20T09:07:24;13.05;;;2.65;;
47009;SDS011;59230;54.164;-3.124;2022-11-20T09:09:49;25.40;;;3.78;;
47009;SDS011;59230;54.164;-3.124;2022-11-20T09:12:15;17.40;;;2.72;;
47009;SDS011;59230;54.164;-3.124;2022-11-20T09:14:43;20.20;;;3.30;;
47009;SDS011;59230;54.164;-3.124;2022-11-20T09:17:09;17.55;;;2.72;;
47009;SDS011;59230;54.164;-3.124;2022-11-20T09:19:39;21.85;;;2.85;;
47009;SDS011;59230;54.164;-3.124;2022-11-20T09:22:05;11.70;;;2.72;;
47009;SDS011;59230;54.164;-3.124;2022-11-20T09:24:31;25.30;;;3.38;;
47009;SDS011;59230;54.164;-3.124;2022-11-20T09:26:56;16.95;;;2.35;;
47009;SDS011;59230;54.164;-3.124;2022-11-20T09:29:22;18.48;;;2.60;;
47009;SDS011;59230;54.164;-3.124;2022-11-20T09:31:48;16.75;;;2.65;;
47009;SDS011;59230;54.164;-3.124;2022-11-20T09:34:14;19.95;;;3.00;;
47009;SDS011;59230;54.164;-3.124;2022-11-20T09:36:41;16.35;;;2.55;;
47009;SDS011;59230;54.164;-3.124;2022-11-20T09:39:07;23.40;;;3.15;;
47009;SDS011;59230;54.164;-3.124;2022-11-20T09:50:25;24.95;;;3.17;;
47009;SDS011;59230;54.164;-3.124;2022-11-20T09:55:31;26.00;;;3.35;;
47009;SDS011;59230;54.164;-3.124;2022-11-20T09:57:57;25.58;;;3.45;;
47009;SDS011;59230;54.164;-3.124;2022-11-20T10:00:23;24.60;;;4.10;;
47009;SDS011;59230;54.164;-3.124;2022-11-20T10:02:55;24.55;;;3.42;;
47009;SDS011;59230;54.164;-3.124;2022-11-20T10:08:22;26.05;;;3.55;;
47009;SDS011;59230;54.164;-3.124;2022-11-20T10:10:54;29.27;;;3.30;;
47009;SDS011;59230;54.164;-3.124;2022-11-20T10:13:58;29.00;;;3.58;;
47009;SDS011;59230;54.164;-3.124;2022-11-20T10:16:47;20.35;;;2.83;;
47009;SDS011;59230;54.164;-3.124;2022-11-20T10:25:20;90.03;;;12.68;;
47009;SDS011;59230;54.164;-3.124;2022-11-20T10:27:55;35.97;;;4.97;;
47009;SDS011;59230;54.164;-3.124;2022-11-20T10:30:48;23.13;;;3.17;;
47009;SDS011;59230;54.164;-3.124;2022-11-20T10:33:23;24.40;;;3.45;;
47009;SDS011;59230;54.164;-3.124;2022-11-20T10:38:54;29.40;;;3.72;;
47009;SDS011;59230;54.164;-3.124;2022-11-20T10:41:43;28.08;;;3.38;;
47009;SDS011;59230;54.164;-3.124;2022-11-20T10:44:15;29.08;;;3.13;;
47009;SDS011;59230;54.164;-3.124;2022-11-20T10:47:05;23.08;;;3.10;;
47009;SDS011;59230;54.164;-3.124;2022-11-20T10:49:38;29.17;;;3.70;;
47009;SDS011;59230;54.164;-3.124;2022-11-20T10:54:47;35.45;;;4.13;;
47009;SDS011;59230;54.164;-3.124;2022-11-20T10:57:25;29.92;;;3.72;;
47009;SDS011;59230;54.164;-3.124;2022-11-20T11:00:04;19.73;;;2.83;;
47009;SDS011;59230;54.164;-3.124;2022-11-20T11:02:40;25.15;;;3.42;;
47009;SDS011;59230;54.164;-3.124;2022-11-20T11:07:51;24.88;;;3.85;;
47009;SDS011;59230;54.164;-3.124;2022-11-20T11:10:46;19.15;;;3.13;;
47009;SDS011;59230;54.164;-3.124;2022-11-20T11:13:24;30.15;;;3.13;;
47009;SDS011;59230;54.164;-3.124;2022-11-20T11:15:57;35.47;;;4.15;;
47009;SDS011;59230;54.164;-3.124;2022-11-20T11:18:28;23.70;;;3.25;;
47009;SDS011;59230;54.164;-3.124;2022-11-20T11:23:35;25.90;;;3.78;;
47009;SDS011;59230;54.164;-3.124;2022-11-20T11:26:18;27.95;;;4.13;;
47009;SDS011;59230;54.164;-3.124;2022-11-20T11:29:03;20.50;;;2.80;;
47009;SDS011;59230;54.164;-3.124;2022-11-20T11:34:05;20.67;;;2.63;;
47009;SDS011;59230;54.164;-3.124;2022-11-20T11:36:37;24.98;;;3.38;;
47009;SDS011;59230;54.164;-3.124;2022-11-20T11:39:05;25.42;;;3.75;;
47009;SDS011;59230;54.164;-3.124;2022-11-20T11:41:39;30.00;;;2.75;;
47009;SDS011;59230;54.164;-3.124;2022-11-20T11:44:21;21.30;;;3.40;;
47009;SDS011;59230;54.164;-3.124;2022-11-20T11:47:29;29.17;;;3.63;;
47009;SDS011;59230;54.164;-3.124;2022-11-20T11:52:54;32.25;;;3.80;;
47009;SDS011;59230;54.164;-3.124;2022-11-20T12:03:34;38.55;;;4.63;;
47009;SDS011;59230;54.164;-3.124;2022-11-20T12:06:11;34.65;;;4.47;;
47009;SDS011;59230;54.164;-3.124;2022-11-20T12:08:53;37.35;;;5.30;;
47009;SDS011;59230;54.164;-3.124;2022-11-20T12:16:35;37.65;;;3.95;;
47009;SDS011;59230;54.164;-3.124;2022-11-20T12:19:02;44.33;;;5.78;;
47009;SDS011;59230;54.164;-3.124;2022-11-20T12:21:49;37.63;;;4.93;;
47009;SDS011;59230;54.164;-3.124;2022-11-20T12:32:42;37.22;;;5.35;;
47009;SDS011;59230;54.164;-3.124;2022-11-20T12:40:53;22.08;;;3.47;;
47009;SDS011;59230;54.164;-3.124;2022-11-20T12:44:16;22.67;;;3.03;;
47009;SDS011;59230;54.164;-3.124;2022-11-20T12:47:28;15.68;;;2.30;;
47009;SDS011;59230;54.164;-3.124;2022-11-20T12:55:47;23.52;;;3.40;;
47009;SDS011;59230;54.164;-3.124;2022-11-20T13:06:41;25.55;;;3.75;;
47009;SDS011;59230;54.164;-3.124;2022-11-20T13:09:11;31.83;;;3.45;;
47009;SDS011;59230;54.164;-3.124;2022-11-20T13:17:47;25.30;;;5.70;;
47009;SDS011;59230;54.164;-3.124;2022-11-20T13:20:24;30.60;;;6.43;;
47009;SDS011;59230;54.164;-3.124;2022-11-20T13:22:51;24.15;;;6.28;;
47009;SDS011;59230;54.164;-3.124;2022-11-20T13:25:29;26.77;;;6.40;;
47009;SDS011;59230;54.164;-3.124;2022-11-20T13:27:58;24.65;;;6.97;;
47009;SDS011;59230;54.164;-3.124;2022-11-20T13:30:26;35.90;;;6.03;;
47009;SDS011;59230;54.164;-3.124;2022-11-20T13:35:34;28.13;;;6.07;;
47009;SDS011;59230;54.164;-3.124;2022-11-20T13:38:08;33.58;;;6.35;;
47009;SDS011;59230;54.164;-3.124;2022-11-20T13:45:56;20.25;;;2.90;;
47009;SDS011;59230;54.164;-3.124;2022-11-20T13:48:26;16.70;;;1.73;;
47009;SDS011;59230;54.164;-3.124;2022-11-20T13:50:59;16.38;;;2.22;;
47009;SDS011;59230;54.164;-3.124;2022-11-20T14:02:26;27.52;;;3.92;;
47009;SDS011;59230;54.164;-3.124;2022-11-20T14:04:57;24.02;;;5.65;;
47009;SDS011;59230;54.164;-3.124;2022-11-20T14:07:25;24.67;;;7.90;;
47009;SDS011;59230;54.164;-3.124;2022-11-20T14:09:59;27.27;;;5.97;;
47009;SDS011;59230;54.164;-3.124;2022-11-20T14:12:32;26.08;;;5.22;;
47009;SDS011;59230;54.164;-3.124;2022-11-20T14:15:00;25.48;;;3.95;;
47009;SDS011;59230;54.164;-3.124;2022-11-20T14:20:06;25.92;;;2.55;;
47009;SDS011;59230;54.164;-3.124;2022-11-20T14:22:36;19.85;;;2.90;;
47009;SDS011;59230;54.164;-3.124;2022-11-20T14:27:37;22.88;;;2.58;;
47009;SDS011;59230;54.164;-3.124;2022-11-20T14:30:15;19.20;;;3.60;;
47009;SDS011;59230;54.164;-3.124;2022-11-20T14:32:48;27.67;;;4.68;;
47009;SDS011;59230;54.164;-3.124;2022-11-20T14:35:24;14.57;;;4.40;;
47009;SDS011;59230;54.164;-3.124;2022-11-20T14:37:51;25.17;;;5.03;;
47009;SDS011;59230;54.164;-3.124;2022-11-20T14:42:49;24.73;;;5.70;;
47009;SDS011;59230;54.164;-3.124;2022-11-20T14:45:15;72.03;;;26.35;;
47009;SDS011;59230;54.164;-3.124;2022-11-20T14:47:43;146.02;;;59.42;;
47009;SDS011;59230;54.164;-3.124;2022-11-20T14:50:27;97.88;;;48.20;;
47009;SDS011;59230;54.164;-3.124;2022-11-20T14:52:59;76.95;;;30.60;;
47009;SDS011;59230;54.164;-3.124;2022-11-20T14:55:36;55.25;;;25.70;;
47009;SDS011;59230;54.164;-3.124;2022-11-20T14:58:20;53.67;;;19.08;;
47009;SDS011;59230;54.164;-3.124;2022-11-20T15:00:58;35.40;;;11.00;;
47009;SDS011;59230;54.164;-3.124;2022-11-20T15:03:38;36.55;;;9.13;;
47009;SDS011;59230;54.164;-3.124;2022-11-20T15:06:07;44.72;;;9.35;;
47009;SDS011;59230;54.164;-3.124;2022-11-20T15:08:37;29.95;;;7.53;;
47009;SDS011;59230;54.164;-3.124;2022-11-20T15:11:14;30.27;;;5.72;;
47009;SDS011;59230;54.164;-3.124;2022-11-20T15:13:45;31.13;;;4.40;;
47009;SDS011;59230;54.164;-3.124;2022-11-20T15:16:18;22.33;;;3.55;;
47009;SDS011;59230;54.164;-3.124;2022-11-20T15:18:47;26.65;;;3.38;;
47009;SDS011;59230;54.164;-3.124;2022-11-20T15:21:15;25.05;;;3.78;;
47009;SDS011;59230;54.164;-3.124;2022-11-20T15:23:44;15.52;;;3.08;;
47009;SDS011;59230;54.164;-3.124;2022-11-20T15:26:12;15.40;;;2.78;;
47009;SDS011;59230;54.164;-3.124;2022-11-20T15:28:49;16.92;;;3.47;;
47009;SDS011;59230;54.164;-3.124;2022-11-20T15:31:17;13.23;;;2.33;;
47009;SDS011;59230;54.164;-3.124;2022-11-20T15:33:44;6.32;;;1.42;;
47009;SDS011;59230;54.164;-3.124;2022-11-20T15:36:10;8.10;;;1.33;;
47009;SDS011;59230;54.164;-3.124;2022-11-20T15:38:35;9.88;;;1.25;;
47009;SDS011;59230;54.164;-3.124;2022-11-20T15:41:04;12.05;;;1.00;;
47009;SDS011;59230;54.164;-3.124;2022-11-20T15:43:31;4.07;;;0.80;;
47009;SDS011;59230;54.164;-3.124;2022-11-20T15:48:29;7.65;;;1.10;;
47009;SDS011;59230;54.164;-3.124;2022-11-20T15:53:49;4.97;;;1.30;;
47009;SDS011;59230;54.164;-3.124;2022-11-20T15:56:16;11.10;;;2.30;;
47009;SDS011;59230;54.164;-3.124;2022-11-20T15:58:42;10.52;;;2.60;;
47009;SDS011;59230;54.164;-3.124;2022-11-20T16:01:12;16.33;;;3.10;;
47009;SDS011;59230;54.164;-3.124;2022-11-20T16:03:43;12.43;;;2.65;;
47009;SDS011;59230;54.164;-3.124;2022-11-20T16:06:11;15.77;;;2.53;;
47009;SDS011;59230;54.164;-3.124;2022-11-20T16:08:37;12.90;;;1.67;;
47009;SDS011;59230;54.164;-3.124;2022-11-20T16:11:03;12.07;;;1.83;;
47009;SDS011;59230;54.164;-3.124;2022-11-20T16:13:31;14.05;;;2.30;;
47009;SDS011;59230;54.164;-3.124;2022-11-20T16:16:38;12.88;;;2.15;;
47009;SDS011;59230;54.164;-3.124;2022-11-20T16:19:10;14.35;;;2.47;;
47009;SDS011;59230;54.164;-3.124;2022-11-20T16:21:42;14.13;;;2.50;;
47009;SDS011;59230;54.164;-3.124;2022-11-20T16:24:10;11.43;;;2.50;;
47009;SDS011;59230;54.164;-3.124;2022-11-20T16:26:38;17.70;;;2.75;;
47009;SDS011;59230;54.164;-3.124;2022-11-20T16:29:07;12.25;;;4.45;;
47009;SDS011;59230;54.164;-3.124;2022-11-20T16:31:35;20.77;;;3.88;;
47009;SDS011;59230;54.164;-3.124;2022-11-20T16:34:04;14.40;;;3.30;;
47009;SDS011;59230;54.164;-3.124;2022-11-20T16:36:33;20.38;;;3.38;;
47009;SDS011;59230;54.164;-3.124;2022-11-20T16:39:02;17.00;;;2.60;;
47009;SDS011;59230;54.164;-3.124;2022-11-20T16:41:31;15.23;;;1.60;;
47009;SDS011;59230;54.164;-3.124;2022-11-20T16:44:00;11.73;;;1.55;;
47009;SDS011;59230;54.164;-3.124;2022-11-20T16:46:30;18.58;;;1.48;;
47009;SDS011;59230;54.164;-3.124;2022-11-20T16:48:57;10.80;;;1.67;;